sensor_id;sensor_type;location;lat;lon;timestamp;temperature;humidity
20483;DHT22;10400;53.198;6.592;2022-11-14T00:02:02;7.70;99.90
20483;DHT22;10400;53.198;6.592;2022-11-14T00:04:28;7.70;99.90
20483;DHT22;10400;53.198;6.592;2022-11-14T00:06:53;7.70;99.90
20483;DHT22;10400;53.198;6.592;2022-11-14T00:09:19;7.70;99.90
20483;DHT22;10400;53.198;6.592;2022-11-14T00:11:44;7.70;99.90
20483;DHT22;10400;53.198;6.592;2022-11-14T00:14:10;7.70;99.90
20483;DHT22;10400;53.198;6.592;2022-11-14T00:16:36;7.70;99.90
20483;DHT22;10400;53.198;6.592;2022-11-14T00:19:02;7.70;99.90
20483;DHT22;10400;53.198;6.592;2022-11-14T00:21:28;7.70;99.90
20483;DHT22;10400;53.198;6.592;2022-11-14T00:23:53;7.70;99.90
20483;DHT22;10400;53.198;6.592;2022-11-14T00:26:19;7.70;99.90
20483;DHT22;10400;53.198;6.592;2022-11-14T00:28:44;7.70;99.90
20483;DHT22;10400;53.198;6.592;2022-11-14T00:31:10;7.70;99.90
20483;DHT22;10400;53.198;6.592;2022-11-14T00:33:36;7.70;99.90
20483;DHT22;10400;53.198;6.592;2022-11-14T00:36:03;7.80;99.90
20483;DHT22;10400;53.198;6.592;2022-11-14T00:38:29;7.80;99.90
20483;DHT22;10400;53.198;6.592;2022-11-14T00:40:54;7.80;99.90
20483;DHT22;10400;53.198;6.592;2022-11-14T00:43:20;7.80;99.90
20483;DHT22;10400;53.198;6.592;2022-11-14T00:45:46;7.80;99.90
20483;DHT22;10400;53.198;6.592;2022-11-14T00:48:13;7.80;99.90
20483;DHT22;10400;53.198;6.592;2022-11-14T00:50:39;7.90;99.90
20483;DHT22;10400;53.198;6.592;2022-11-14T00:53:05;7.90;99.90
20483;DHT22;10400;53.198;6.592;2022-11-14T00:55:30;7.90;99.90
20483;DHT22;10400;53.198;6.592;2022-11-14T00:57:56;7.90;99.90
20483;DHT22;10400;53.198;6.592;2022-11-14T01:00:21;7.90;99.90
20483;DHT22;10400;53.198;6.592;2022-11-14T01:02:47;7.90;99.90
20483;DHT22;10400;53.198;6.592;2022-11-14T01:05:13;7.90;99.90
20483;DHT22;10400;53.198;6.592;2022-11-14T01:07:38;7.90;99.90
20483;DHT22;10400;53.198;6.592;2022-11-14T01:10:04;7.90;99.90
20483;DHT22;10400;53.198;6.592;2022-11-14T01:12:30;7.90;99.90
20483;DHT22;10400;53.198;6.592;2022-11-14T01:14:56;7.90;99.90
20483;DHT22;10400;53.198;6.592;2022-11-14T01:17:21;7.90;99.90
20483;DHT22;10400;53.198;6.592;2022-11-14T01:19:47;7.90;99.90
20483;DHT22;10400;53.198;6.592;2022-11-14T01:22:13;7.90;99.90
20483;DHT22;10400;53.198;6.592;2022-11-14T01:24:38;7.90;99.90
20483;DHT22;10400;53.198;6.592;2022-11-14T01:27:04;7.90;99.90
20483;DHT22;10400;53.198;6.592;2022-11-14T01:29:29;7.90;99.90
20483;DHT22;10400;53.198;6.592;2022-11-14T01:31:55;7.90;99.90
20483;DHT22;10400;53.198;6.592;2022-11-14T01:34:21;7.90;99.90
20483;DHT22;10400;53.198;6.592;2022-11-14T01:36:47;7.90;99.90
20483;DHT22;10400;53.198;6.592;2022-11-14T01:39:12;7.90;99.90
20483;DHT22;10400;53.198;6.592;2022-11-14T01:41:38;7.90;99.90
20483;DHT22;10400;53.198;6.592;2022-11-14T01:44:17;7.80;99.90
20483;DHT22;10400;53.198;6.592;2022-11-14T01:47:02;7.80;99.90
20483;DHT22;10400;53.198;6.592;2022-11-14T01:49:37;7.80;99.90
20483;DHT22;10400;53.198;6.592;2022-11-14T01:52:06;7.80;99.90
20483;DHT22;10400;53.198;6.592;2022-11-14T01:54:36;7.80;99.90
20483;DHT22;10400;53.198;6.592;2022-11-14T01:57:04;7.70;99.90
20483;DHT22;10400;53.198;6.592;2022-11-14T01:59:34;7.70;99.90
20483;DHT22;10400;53.198;6.592;2022-11-14T02:02:06;7.70;99.90
20483;DHT22;10400;53.198;6.592;2022-11-14T02:04:36;7.60;99.90
20483;DHT22;10400;53.198;6.592;2022-11-14T02:07:04;7.70;99.90
20483;DHT22;10400;53.198;6.592;2022-11-14T02:09:35;7.70;99.90
20483;DHT22;10400;53.198;6.592;2022-11-14T02:12:04;7.70;99.90
20483;DHT22;10400;53.198;6.592;2022-11-14T02:14:32;7.70;99.90
20483;DHT22;10400;53.198;6.592;2022-11-14T02:16:58;7.70;99.90
20483;DHT22;10400;53.198;6.592;2022-11-14T02:19:23;7.70;99.90
20483;DHT22;10400;53.198;6.592;2022-11-14T02:21:49;7.70;99.90
20483;DHT22;10400;53.198;6.592;2022-11-14T02:24:15;7.60;99.90
20483;DHT22;10400;53.198;6.592;2022-11-14T02:26:40;7.70;99.90
20483;DHT22;10400;53.198;6.592;2022-11-14T02:29:09;7.70;99.90
20483;DHT22;10400;53.198;6.592;2022-11-14T02:31:34;7.70;99.90
20483;DHT22;10400;53.198;6.592;2022-11-14T02:34:00;7.70;99.90
20483;DHT22;10400;53.198;6.592;2022-11-14T02:36:26;7.60;99.90
20483;DHT22;10400;53.198;6.592;2022-11-14T02:38:52;7.70;99.90
20483;DHT22;10400;53.198;6.592;2022-11-14T02:41:17;7.70;99.90
20483;DHT22;10400;53.198;6.592;2022-11-14T02:43:43;7.70;99.90
20483;DHT22;10400;53.198;6.592;2022-11-14T02:46:09;7.70;99.90
20483;DHT22;10400;53.198;6.592;2022-11-14T02:48:35;7.70;99.90
20483;DHT22;10400;53.198;6.592;2022-11-14T02:51:01;7.70;99.90
20483;DHT22;10400;53.198;6.592;2022-11-14T02:53:26;7.70;99.90
20483;DHT22;10400;53.198;6.592;2022-11-14T02:55:52;7.70;99.90
20483;DHT22;10400;53.198;6.592;2022-11-14T02:58:18;7.70;99.90
20483;DHT22;10400;53.198;6.592;2022-11-14T03:00:44;7.80;99.90
20483;DHT22;10400;53.198;6.592;2022-11-14T03:03:09;7.80;99.90
20483;DHT22;10400;53.198;6.592;2022-11-14T03:05:35;7.80;99.90
20483;DHT22;10400;53.198;6.592;2022-11-14T03:08:01;7.80;99.90
20483;DHT22;10400;53.198;6.592;2022-11-14T03:10:26;7.80;99.90
20483;DHT22;10400;53.198;6.592;2022-11-14T03:12:53;7.80;99.90
20483;DHT22;10400;53.198;6.592;2022-11-14T03:15:19;7.80;99.90
20483;DHT22;10400;53.198;6.592;2022-11-14T03:17:45;7.80;99.90
20483;DHT22;10400;53.198;6.592;2022-11-14T03:20:10;7.80;99.90
20483;DHT22;10400;53.198;6.592;2022-11-14T03:22:36;7.80;99.90
20483;DHT22;10400;53.198;6.592;2022-11-14T03:25:01;7.90;99.90
20483;DHT22;10400;53.198;6.592;2022-11-14T03:27:27;7.80;99.90
20483;DHT22;10400;53.198;6.592;2022-11-14T03:29:53;7.90;99.90
20483;DHT22;10400;53.198;6.592;2022-11-14T03:32:18;7.80;99.90
20483;DHT22;10400;53.198;6.592;2022-11-14T03:34:44;7.90;99.90
20483;DHT22;10400;53.198;6.592;2022-11-14T03:37:10;7.80;99.90
20483;DHT22;10400;53.198;6.592;2022-11-14T03:39:35;7.80;99.90
20483;DHT22;10400;53.198;6.592;2022-11-14T03:42:01;7.80;99.90
20483;DHT22;10400;53.198;6.592;2022-11-14T03:44:27;7.80;99.90
20483;DHT22;10400;53.198;6.592;2022-11-14T03:46:52;7.90;99.90
20483;DHT22;10400;53.198;6.592;2022-11-14T03:49:18;7.80;99.90
20483;DHT22;10400;53.198;6.592;2022-11-14T03:51:43;7.80;99.90
20483;DHT22;10400;53.198;6.592;2022-11-14T03:54:09;7.80;99.90
20483;DHT22;10400;53.198;6.592;2022-11-14T03:56:35;7.90;99.90
20483;DHT22;10400;53.198;6.592;2022-11-14T03:59:00;7.90;99.90
20483;DHT22;10400;53.198;6.592;2022-11-14T04:01:26;7.90;99.90
20483;DHT22;10400;53.198;6.592;2022-11-14T04:03:53;7.90;99.90
20483;DHT22;10400;53.198;6.592;2022-11-14T04:06:19;7.90;99.90
20483;DHT22;10400;53.198;6.592;2022-11-14T04:08:45;7.90;99.90
20483;DHT22;10400;53.198;6.592;2022-11-14T04:11:11;7.90;99.90
20483;DHT22;10400;53.198;6.592;2022-11-14T04:13:36;7.90;99.90
20483;DHT22;10400;53.198;6.592;2022-11-14T04:16:02;7.90;99.90
20483;DHT22;10400;53.198;6.592;2022-11-14T04:18:28;7.90;99.90
20483;DHT22;10400;53.198;6.592;2022-11-14T04:20:53;7.80;99.90
20483;DHT22;10400;53.198;6.592;2022-11-14T04:23:19;7.80;99.90
20483;DHT22;10400;53.198;6.592;2022-11-14T04:25:45;7.80;99.90
20483;DHT22;10400;53.198;6.592;2022-11-14T04:28:11;7.80;99.90
20483;DHT22;10400;53.198;6.592;2022-11-14T04:30:37;7.80;99.90
20483;DHT22;10400;53.198;6.592;2022-11-14T04:33:03;7.80;99.90
20483;DHT22;10400;53.198;6.592;2022-11-14T04:35:29;7.80;99.90
20483;DHT22;10400;53.198;6.592;2022-11-14T04:37:55;7.80;99.90
20483;DHT22;10400;53.198;6.592;2022-11-14T04:40:20;7.70;99.90
20483;DHT22;10400;53.198;6.592;2022-11-14T04:42:47;7.80;99.90
20483;DHT22;10400;53.198;6.592;2022-11-14T04:45:13;7.80;99.90
20483;DHT22;10400;53.198;6.592;2022-11-14T04:47:43;7.70;99.90
20483;DHT22;10400;53.198;6.592;2022-11-14T04:50:09;7.70;99.90
20483;DHT22;10400;53.198;6.592;2022-11-14T04:52:35;7.70;99.90
20483;DHT22;10400;53.198;6.592;2022-11-14T04:55:00;7.70;99.90
20483;DHT22;10400;53.198;6.592;2022-11-14T04:57:26;7.70;99.90
20483;DHT22;10400;53.198;6.592;2022-11-14T04:59:52;7.70;99.90
20483;DHT22;10400;53.198;6.592;2022-11-14T05:02:18;7.70;99.90
20483;DHT22;10400;53.198;6.592;2022-11-14T05:04:43;7.70;99.90
20483;DHT22;10400;53.198;6.592;2022-11-14T05:07:10;7.70;99.90
20483;DHT22;10400;53.198;6.592;2022-11-14T05:09:36;7.70;99.90
20483;DHT22;10400;53.198;6.592;2022-11-14T05:12:02;7.70;99.90
20483;DHT22;10400;53.198;6.592;2022-11-14T05:14:28;7.70;99.90
20483;DHT22;10400;53.198;6.592;2022-11-14T05:16:54;7.70;99.90
20483;DHT22;10400;53.198;6.592;2022-11-14T05:19:19;7.70;99.90
20483;DHT22;10400;53.198;6.592;2022-11-14T05:21:45;7.60;99.90
20483;DHT22;10400;53.198;6.592;2022-11-14T05:24:10;7.70;99.90
20483;DHT22;10400;53.198;6.592;2022-11-14T05:26:36;7.60;99.90
20483;DHT22;10400;53.198;6.592;2022-11-14T05:29:03;7.70;99.90
20483;DHT22;10400;53.198;6.592;2022-11-14T05:31:28;7.70;99.90
20483;DHT22;10400;53.198;6.592;2022-11-14T05:33:54;7.60;99.90
20483;DHT22;10400;53.198;6.592;2022-11-14T05:36:20;7.60;99.90
20483;DHT22;10400;53.198;6.592;2022-11-14T05:38:46;7.70;99.90
20483;DHT22;10400;53.198;6.592;2022-11-14T05:41:14;7.60;99.90
20483;DHT22;10400;53.198;6.592;2022-11-14T05:43:40;7.70;99.90
20483;DHT22;10400;53.198;6.592;2022-11-14T05:46:10;7.70;99.90
20483;DHT22;10400;53.198;6.592;2022-11-14T05:48:37;7.60;99.90
20483;DHT22;10400;53.198;6.592;2022-11-14T05:51:04;7.70;99.90
20483;DHT22;10400;53.198;6.592;2022-11-14T05:53:31;7.60;99.90
20483;DHT22;10400;53.198;6.592;2022-11-14T05:56:06;7.60;99.90
20483;DHT22;10400;53.198;6.592;2022-11-14T05:58:32;7.50;99.90
20483;DHT22;10400;53.198;6.592;2022-11-14T06:01:07;7.50;99.90
20483;DHT22;10400;53.198;6.592;2022-11-14T06:03:34;7.50;99.90
20483;DHT22;10400;53.198;6.592;2022-11-14T06:06:05;7.40;99.90
20483;DHT22;10400;53.198;6.592;2022-11-14T06:08:31;7.40;99.90
20483;DHT22;10400;53.198;6.592;2022-11-14T06:11:06;7.40;99.90
20483;DHT22;10400;53.198;6.592;2022-11-14T06:13:32;7.40;99.90
20483;DHT22;10400;53.198;6.592;2022-11-14T06:16:03;7.40;99.90
20483;DHT22;10400;53.198;6.592;2022-11-14T06:18:30;7.40;99.90
20483;DHT22;10400;53.198;6.592;2022-11-14T06:21:10;7.40;99.90
20483;DHT22;10400;53.198;6.592;2022-11-14T06:23:36;7.40;99.90
20483;DHT22;10400;53.198;6.592;2022-11-14T06:26:04;7.40;99.90
20483;DHT22;10400;53.198;6.592;2022-11-14T06:28:30;7.40;99.90
20483;DHT22;10400;53.198;6.592;2022-11-14T06:31:01;7.50;99.90
20483;DHT22;10400;53.198;6.592;2022-11-14T06:33:28;7.50;99.90
20483;DHT22;10400;53.198;6.592;2022-11-14T06:35:58;7.40;99.90
20483;DHT22;10400;53.198;6.592;2022-11-14T06:38:23;7.40;99.90
20483;DHT22;10400;53.198;6.592;2022-11-14T06:40:49;7.30;99.90
20483;DHT22;10400;53.198;6.592;2022-11-14T06:43:15;7.30;99.90
20483;DHT22;10400;53.198;6.592;2022-11-14T06:45:40;7.30;99.90
20483;DHT22;10400;53.198;6.592;2022-11-14T06:48:06;7.30;99.90
20483;DHT22;10400;53.198;6.592;2022-11-14T06:50:32;7.30;99.90
20483;DHT22;10400;53.198;6.592;2022-11-14T06:52:57;7.20;99.90
20483;DHT22;10400;53.198;6.592;2022-11-14T06:55:24;7.30;99.90
20483;DHT22;10400;53.198;6.592;2022-11-14T06:57:53;7.20;99.90
20483;DHT22;10400;53.198;6.592;2022-11-14T07:00:20;7.30;99.90
20483;DHT22;10400;53.198;6.592;2022-11-14T07:02:47;7.30;99.90
20483;DHT22;10400;53.198;6.592;2022-11-14T07:05:12;7.30;99.90
20483;DHT22;10400;53.198;6.592;2022-11-14T07:07:38;7.30;99.90
20483;DHT22;10400;53.198;6.592;2022-11-14T07:10:04;7.40;99.90
20483;DHT22;10400;53.198;6.592;2022-11-14T07:12:30;7.40;99.90
20483;DHT22;10400;53.198;6.592;2022-11-14T07:14:57;7.40;99.90
20483;DHT22;10400;53.198;6.592;2022-11-14T07:17:23;7.40;99.90
20483;DHT22;10400;53.198;6.592;2022-11-14T07:19:48;7.40;99.90
20483;DHT22;10400;53.198;6.592;2022-11-14T07:22:14;7.40;99.90
20483;DHT22;10400;53.198;6.592;2022-11-14T07:24:39;7.30;99.90
20483;DHT22;10400;53.198;6.592;2022-11-14T07:27:05;7.20;99.90
20483;DHT22;10400;53.198;6.592;2022-11-14T07:29:33;7.20;99.90
20483;DHT22;10400;53.198;6.592;2022-11-14T07:31:59;7.20;99.90
20483;DHT22;10400;53.198;6.592;2022-11-14T07:34:24;7.20;99.90
20483;DHT22;10400;53.198;6.592;2022-11-14T07:36:50;7.10;99.90
20483;DHT22;10400;53.198;6.592;2022-11-14T07:39:16;7.10;99.90
20483;DHT22;10400;53.198;6.592;2022-11-14T07:41:41;7.10;99.90
20483;DHT22;10400;53.198;6.592;2022-11-14T07:44:07;7.10;99.90
20483;DHT22;10400;53.198;6.592;2022-11-14T07:46:33;7.10;99.90
20483;DHT22;10400;53.198;6.592;2022-11-14T07:48:58;7.10;99.90
20483;DHT22;10400;53.198;6.592;2022-11-14T07:51:24;7.10;99.90
20483;DHT22;10400;53.198;6.592;2022-11-14T07:53:51;7.10;99.90
20483;DHT22;10400;53.198;6.592;2022-11-14T07:56:18;7.10;99.90
20483;DHT22;10400;53.198;6.592;2022-11-14T07:58:45;7.10;99.90
20483;DHT22;10400;53.198;6.592;2022-11-14T08:01:12;7.10;99.90
20483;DHT22;10400;53.198;6.592;2022-11-14T08:03:38;7.20;99.90
20483;DHT22;10400;53.198;6.592;2022-11-14T08:06:06;7.20;99.90
20483;DHT22;10400;53.198;6.592;2022-11-14T08:08:32;7.20;99.90
20483;DHT22;10400;53.198;6.592;2022-11-14T08:10:58;7.30;99.90
20483;DHT22;10400;53.198;6.592;2022-11-14T08:13:25;7.30;99.90
20483;DHT22;10400;53.198;6.592;2022-11-14T08:15:51;7.30;99.90
20483;DHT22;10400;53.198;6.592;2022-11-14T08:18:16;7.30;99.90
20483;DHT22;10400;53.198;6.592;2022-11-14T08:20:42;7.30;99.90
20483;DHT22;10400;53.198;6.592;2022-11-14T08:23:09;7.30;99.90
20483;DHT22;10400;53.198;6.592;2022-11-14T08:25:35;7.40;99.90
20483;DHT22;10400;53.198;6.592;2022-11-14T08:28:01;7.40;99.90
20483;DHT22;10400;53.198;6.592;2022-11-14T08:30:28;7.40;99.90
20483;DHT22;10400;53.198;6.592;2022-11-14T08:32:53;7.30;99.90
20483;DHT22;10400;53.198;6.592;2022-11-14T08:35:19;7.30;99.90
20483;DHT22;10400;53.198;6.592;2022-11-14T08:37:45;7.40;99.90
20483;DHT22;10400;53.198;6.592;2022-11-14T08:40:11;7.40;99.90
20483;DHT22;10400;53.198;6.592;2022-11-14T08:42:37;7.40;99.90
20483;DHT22;10400;53.198;6.592;2022-11-14T08:45:03;7.40;99.90
20483;DHT22;10400;53.198;6.592;2022-11-14T08:47:28;7.40;99.90
20483;DHT22;10400;53.198;6.592;2022-11-14T08:49:54;7.50;99.90
20483;DHT22;10400;53.198;6.592;2022-11-14T08:52:20;7.50;99.90
20483;DHT22;10400;53.198;6.592;2022-11-14T08:54:46;7.50;99.90
20483;DHT22;10400;53.198;6.592;2022-11-14T08:57:12;7.50;99.90
20483;DHT22;10400;53.198;6.592;2022-11-14T08:59:40;7.50;99.90
20483;DHT22;10400;53.198;6.592;2022-11-14T09:02:08;7.60;99.90
20483;DHT22;10400;53.198;6.592;2022-11-14T09:04:33;7.50;99.90
20483;DHT22;10400;53.198;6.592;2022-11-14T09:06:59;7.60;99.90
20483;DHT22;10400;53.198;6.592;2022-11-14T09:09:25;7.60;99.90
20483;DHT22;10400;53.198;6.592;2022-11-14T09:11:50;7.60;99.90
20483;DHT22;10400;53.198;6.592;2022-11-14T09:14:16;7.60;99.90
20483;DHT22;10400;53.198;6.592;2022-11-14T09:16:41;7.60;99.90
20483;DHT22;10400;53.198;6.592;2022-11-14T09:19:07;7.60;99.90
20483;DHT22;10400;53.198;6.592;2022-11-14T09:21:33;7.50;99.90
20483;DHT22;10400;53.198;6.592;2022-11-14T09:23:58;7.60;99.90
20483;DHT22;10400;53.198;6.592;2022-11-14T09:26:24;7.60;99.90
20483;DHT22;10400;53.198;6.592;2022-11-14T09:28:49;7.60;99.90
20483;DHT22;10400;53.198;6.592;2022-11-14T09:31:15;7.60;99.90
20483;DHT22;10400;53.198;6.592;2022-11-14T09:33:40;7.70;99.90
20483;DHT22;10400;53.198;6.592;2022-11-14T09:36:09;7.70;99.90
20483;DHT22;10400;53.198;6.592;2022-11-14T09:38:35;7.80;99.90
20483;DHT22;10400;53.198;6.592;2022-11-14T09:41:03;7.90;99.90
20483;DHT22;10400;53.198;6.592;2022-11-14T09:46:19;8.10;99.90
20483;DHT22;10400;53.198;6.592;2022-11-14T09:48:46;8.10;99.90
20483;DHT22;10400;53.198;6.592;2022-11-14T09:51:21;8.20;99.90
20483;DHT22;10400;53.198;6.592;2022-11-14T09:54:20;8.20;99.90
20483;DHT22;10400;53.198;6.592;2022-11-14T09:56:47;8.20;99.90
20483;DHT22;10400;53.198;6.592;2022-11-14T09:59:13;8.20;99.90
20483;DHT22;10400;53.198;6.592;2022-11-14T10:01:56;8.20;99.90
20483;DHT22;10400;53.198;6.592;2022-11-14T10:04:48;8.20;99.90
20483;DHT22;10400;53.198;6.592;2022-11-14T10:07:56;8.20;99.90
20483;DHT22;10400;53.198;6.592;2022-11-14T10:19:02;8.20;99.90
20483;DHT22;10400;53.198;6.592;2022-11-14T10:24:59;8.20;99.90
20483;DHT22;10400;53.198;6.592;2022-11-14T10:27:37;8.10;99.90
20483;DHT22;10400;53.198;6.592;2022-11-14T10:30:11;8.20;99.90
20483;DHT22;10400;53.198;6.592;2022-11-14T10:35:32;8.30;99.90
20483;DHT22;10400;53.198;6.592;2022-11-14T10:40:46;8.40;99.90
20483;DHT22;10400;53.198;6.592;2022-11-14T10:46:11;8.40;99.90
20483;DHT22;10400;53.198;6.592;2022-11-14T10:48:40;8.40;99.90
20483;DHT22;10400;53.198;6.592;2022-11-14T10:56:47;8.60;99.90
20483;DHT22;10400;53.198;6.592;2022-11-14T10:59:13;8.80;99.90
20483;DHT22;10400;53.198;6.592;2022-11-14T11:01:41;9.00;99.90
20483;DHT22;10400;53.198;6.592;2022-11-14T11:06:44;9.00;99.90
20483;DHT22;10400;53.198;6.592;2022-11-14T11:09:16;9.00;99.90
20483;DHT22;10400;53.198;6.592;2022-11-14T11:12:01;8.90;99.90
20483;DHT22;10400;53.198;6.592;2022-11-14T11:14:28;8.90;99.90
20483;DHT22;10400;53.198;6.592;2022-11-14T11:17:18;8.90;99.90
20483;DHT22;10400;53.198;6.592;2022-11-14T11:19:46;8.90;99.90
20483;DHT22;10400;53.198;6.592;2022-11-14T11:22:36;8.80;99.90
20483;DHT22;10400;53.198;6.592;2022-11-14T11:25:24;8.70;99.90
20483;DHT22;10400;53.198;6.592;2022-11-14T11:28:04;8.70;99.90
20483;DHT22;10400;53.198;6.592;2022-11-14T11:30:31;8.80;99.90
20483;DHT22;10400;53.198;6.592;2022-11-14T11:35:47;8.80;99.90
20483;DHT22;10400;53.198;6.592;2022-11-14T11:38:20;8.80;99.90
20483;DHT22;10400;53.198;6.592;2022-11-14T11:40:50;8.90;99.90
20483;DHT22;10400;53.198;6.592;2022-11-14T11:46:13;9.10;99.90
20483;DHT22;10400;53.198;6.592;2022-11-14T11:48:40;9.20;99.90
20483;DHT22;10400;53.198;6.592;2022-11-14T11:51:13;9.20;99.90
20483;DHT22;10400;53.198;6.592;2022-11-14T11:53:43;9.20;99.90
20483;DHT22;10400;53.198;6.592;2022-11-14T11:56:13;9.20;99.90
20483;DHT22;10400;53.198;6.592;2022-11-14T11:58:49;9.10;99.90
20483;DHT22;10400;53.198;6.592;2022-11-14T12:01:16;9.00;99.90
20483;DHT22;10400;53.198;6.592;2022-11-14T12:03:47;9.00;99.90
20483;DHT22;10400;53.198;6.592;2022-11-14T12:06:20;9.00;99.90
20483;DHT22;10400;53.198;6.592;2022-11-14T12:09:17;9.10;99.90
20483;DHT22;10400;53.198;6.592;2022-11-14T12:11:51;9.10;99.90
20483;DHT22;10400;53.198;6.592;2022-11-14T12:26:29;9.30;99.90
20483;DHT22;10400;53.198;6.592;2022-11-14T12:31:27;9.50;99.90
20483;DHT22;10400;53.198;6.592;2022-11-14T12:34:29;9.40;99.90
20483;DHT22;10400;53.198;6.592;2022-11-14T12:36:56;9.50;99.90
20483;DHT22;10400;53.198;6.592;2022-11-14T12:39:27;9.50;99.90
20483;DHT22;10400;53.198;6.592;2022-11-14T12:42:08;9.50;99.90
20483;DHT22;10400;53.198;6.592;2022-11-14T12:44:39;9.50;99.90
20483;DHT22;10400;53.198;6.592;2022-11-14T12:55:00;9.60;99.90
20483;DHT22;10400;53.198;6.592;2022-11-14T13:00:18;9.70;99.90
20483;DHT22;10400;53.198;6.592;2022-11-14T13:05:22;9.70;99.90
20483;DHT22;10400;53.198;6.592;2022-11-14T13:08:21;9.70;99.90
20483;DHT22;10400;53.198;6.592;2022-11-14T13:10:52;9.80;99.90
20483;DHT22;10400;53.198;6.592;2022-11-14T13:13:18;9.90;99.90
20483;DHT22;10400;53.198;6.592;2022-11-14T13:16:03;9.90;99.90
20483;DHT22;10400;53.198;6.592;2022-11-14T13:22:22;10.00;99.90
20483;DHT22;10400;53.198;6.592;2022-11-14T13:27:34;10.00;99.90
20483;DHT22;10400;53.198;6.592;2022-11-14T13:30:03;10.00;99.90
20483;DHT22;10400;53.198;6.592;2022-11-14T13:35:29;10.00;99.90
20483;DHT22;10400;53.198;6.592;2022-11-14T13:51:44;10.10;99.90
20483;DHT22;10400;53.198;6.592;2022-11-14T13:54:12;10.10;99.90
20483;DHT22;10400;53.198;6.592;2022-11-14T14:16:10;9.90;99.90
20483;DHT22;10400;53.198;6.592;2022-11-14T14:22:31;9.90;99.90
20483;DHT22;10400;53.198;6.592;2022-11-14T14:25:22;9.90;99.90
20483;DHT22;10400;53.198;6.592;2022-11-14T14:31:03;9.90;99.90
20483;DHT22;10400;53.198;6.592;2022-11-14T14:33:45;9.90;99.90
20483;DHT22;10400;53.198;6.592;2022-11-14T14:36:18;9.80;99.90
20483;DHT22;10400;53.198;6.592;2022-11-14T14:38:44;9.80;99.90
20483;DHT22;10400;53.198;6.592;2022-11-14T14:41:11;9.80;99.90
20483;DHT22;10400;53.198;6.592;2022-11-14T14:43:41;9.80;99.90
20483;DHT22;10400;53.198;6.592;2022-11-14T14:46:07;9.80;99.90
20483;DHT22;10400;53.198;6.592;2022-11-14T14:48:35;9.80;99.90
20483;DHT22;10400;53.198;6.592;2022-11-14T14:51:03;9.70;99.90
20483;DHT22;10400;53.198;6.592;2022-11-14T14:53:35;9.70;99.90
20483;DHT22;10400;53.198;6.592;2022-11-14T14:56:06;9.70;99.90
20483;DHT22;10400;53.198;6.592;2022-11-14T14:58:41;9.70;99.90
20483;DHT22;10400;53.198;6.592;2022-11-14T15:01:15;9.60;99.90
20483;DHT22;10400;53.198;6.592;2022-11-14T15:03:45;9.60;99.90
20483;DHT22;10400;53.198;6.592;2022-11-14T15:06:34;9.50;99.90
20483;DHT22;10400;53.198;6.592;2022-11-14T15:09:10;9.50;99.90
20483;DHT22;10400;53.198;6.592;2022-11-14T15:11:40;9.40;99.90
20483;DHT22;10400;53.198;6.592;2022-11-14T15:14:13;9.40;99.90
20483;DHT22;10400;53.198;6.592;2022-11-14T15:16:39;9.30;99.90
20483;DHT22;10400;53.198;6.592;2022-11-14T15:19:05;9.30;99.90
20483;DHT22;10400;53.198;6.592;2022-11-14T15:21:34;9.20;99.90
20483;DHT22;10400;53.198;6.592;2022-11-14T15:24:09;9.10;99.90
20483;DHT22;10400;53.198;6.592;2022-11-14T15:26:36;9.10;99.90
20483;DHT22;10400;53.198;6.592;2022-11-14T15:29:04;9.00;99.90
20483;DHT22;10400;53.198;6.592;2022-11-14T15:31:33;9.00;99.90
20483;DHT22;10400;53.198;6.592;2022-11-14T15:34:05;9.00;99.90
20483;DHT22;10400;53.198;6.592;2022-11-14T15:36:31;9.00;99.90
20483;DHT22;10400;53.198;6.592;2022-11-14T15:39:04;8.90;99.90
20483;DHT22;10400;53.198;6.592;2022-11-14T15:41:45;8.80;99.90
20483;DHT22;10400;53.198;6.592;2022-11-14T15:44:28;8.80;99.90
20483;DHT22;10400;53.198;6.592;2022-11-14T15:46:54;8.80;99.90
20483;DHT22;10400;53.198;6.592;2022-11-14T15:49:25;8.80;99.90
20483;DHT22;10400;53.198;6.592;2022-11-14T15:51:54;8.70;99.90
20483;DHT22;10400;53.198;6.592;2022-11-14T15:54:26;8.70;99.90
20483;DHT22;10400;53.198;6.592;2022-11-14T15:56:54;8.80;99.90
20483;DHT22;10400;53.198;6.592;2022-11-14T15:59:20;8.70;99.90
20483;DHT22;10400;53.198;6.592;2022-11-14T16:01:49;8.70;99.90
20483;DHT22;10400;53.198;6.592;2022-11-14T16:04:18;8.80;99.90
20483;DHT22;10400;53.198;6.592;2022-11-14T16:06:43;8.80;99.90
20483;DHT22;10400;53.198;6.592;2022-11-14T16:09:14;8.90;99.90
20483;DHT22;10400;53.198;6.592;2022-11-14T16:11:40;8.80;99.90
20483;DHT22;10400;53.198;6.592;2022-11-14T16:14:05;8.80;99.90
20483;DHT22;10400;53.198;6.592;2022-11-14T16:16:31;8.90;99.90
20483;DHT22;10400;53.198;6.592;2022-11-14T16:18:56;8.90;99.90
20483;DHT22;10400;53.198;6.592;2022-11-14T16:21:22;8.90;99.90
20483;DHT22;10400;53.198;6.592;2022-11-14T16:23:48;8.90;99.90
20483;DHT22;10400;53.198;6.592;2022-11-14T16:26:14;8.90;99.90
20483;DHT22;10400;53.198;6.592;2022-11-14T16:28:40;8.90;99.90
20483;DHT22;10400;53.198;6.592;2022-11-14T16:31:13;8.90;99.90
20483;DHT22;10400;53.198;6.592;2022-11-14T16:33:38;8.90;99.90
20483;DHT22;10400;53.198;6.592;2022-11-14T16:36:04;9.00;99.90
20483;DHT22;10400;53.198;6.592;2022-11-14T16:38:30;8.90;99.90
20483;DHT22;10400;53.198;6.592;2022-11-14T16:40:56;8.90;99.90
20483;DHT22;10400;53.198;6.592;2022-11-14T16:43:22;9.00;99.90
20483;DHT22;10400;53.198;6.592;2022-11-14T16:45:47;9.00;99.90
20483;DHT22;10400;53.198;6.592;2022-11-14T16:48:13;9.00;99.90
20483;DHT22;10400;53.198;6.592;2022-11-14T16:50:38;9.00;99.90
20483;DHT22;10400;53.198;6.592;2022-11-14T16:53:04;9.00;99.90
20483;DHT22;10400;53.198;6.592;2022-11-14T16:55:30;9.00;99.90
20483;DHT22;10400;53.198;6.592;2022-11-14T16:57:56;9.00;99.90
20483;DHT22;10400;53.198;6.592;2022-11-14T17:00:21;9.00;99.90
20483;DHT22;10400;53.198;6.592;2022-11-14T17:02:47;9.00;99.90
20483;DHT22;10400;53.198;6.592;2022-11-14T17:05:13;9.00;99.90
20483;DHT22;10400;53.198;6.592;2022-11-14T17:07:38;9.00;99.90
20483;DHT22;10400;53.198;6.592;2022-11-14T17:10:05;9.00;99.90
20483;DHT22;10400;53.198;6.592;2022-11-14T17:12:32;9.00;99.90
20483;DHT22;10400;53.198;6.592;2022-11-14T17:14:58;9.00;99.90
20483;DHT22;10400;53.198;6.592;2022-11-14T17:17:24;9.00;99.90
20483;DHT22;10400;53.198;6.592;2022-11-14T17:19:50;9.10;99.90
20483;DHT22;10400;53.198;6.592;2022-11-14T17:22:16;9.10;99.90
20483;DHT22;10400;53.198;6.592;2022-11-14T17:24:43;9.00;99.90
20483;DHT22;10400;53.198;6.592;2022-11-14T17:27:09;9.00;99.90
20483;DHT22;10400;53.198;6.592;2022-11-14T17:29:37;9.00;99.90
20483;DHT22;10400;53.198;6.592;2022-11-14T17:32:03;8.90;99.90
20483;DHT22;10400;53.198;6.592;2022-11-14T17:34:29;8.90;99.90
20483;DHT22;10400;53.198;6.592;2022-11-14T17:36:55;8.90;99.90
20483;DHT22;10400;53.198;6.592;2022-11-14T17:39:21;8.90;99.90
20483;DHT22;10400;53.198;6.592;2022-11-14T17:41:47;8.90;99.90
20483;DHT22;10400;53.198;6.592;2022-11-14T17:44:13;9.00;99.90
20483;DHT22;10400;53.198;6.592;2022-11-14T17:46:38;8.90;99.90